Elmer City, Washington
Current Conditions -  °F | °C
As of 11:05 PM on Wednesday 22 Oct 2014 (Local Time) from KOMK Reporting Station
Overcast Overcast  
Wind Chill: 55°   Ceiling: 2800
Heat Index: 55°   Visibility: 10mi
Dew Point: 50°   Wind: 12mph
Humidity: 83%   Direction: 180°S
Pressure: 29.63"   Gusts: NA
Location:  48°N, 118.95°W
Report Text: KOMK 230605Z AUTO 18010KT 10SM OVC028 13/10 A2963 RMK AO2 T01280100
Loading
Personal Weather Stations






























Interactive Weather Map
Tropical Storm Tracking
New forecast layout! Learn more

10-Day Weather Forecast

Advertisements
Track Severe Weather on mobile